PWSweather.com
Personal Weather Stations
Station Observations
IVENETOL9
Brugine, BrugineIT 35020

BrugineBrugineIT 35020

Lat: 45.2975, Lon: 11.9962777

Elevation: 19

Station Type: Davis Vantage Pro2 Plus

http://www.meteobrugine.it/

Latest ConditionsUpdated 8:45:28 PM GMT+01:01 Wednesday, Jul 23, 2014
Currently Today's Max Today's Min Today's Average
Temperature 74.6°F23.7°C 88.4°F31.3°C 68.2°F20.1°C 77.2°F25.1°C
Dew Point 68.7°F20.4°C 72.9°F22.7°C 62.7°F17.1°C 68.8°F20.4°C
Winds Calm Calm 0.8 mph SSW1.3 kmh SSW - 0.1 mph 0.2 kmh
Wind Gusts -- 3.0 mph4.8 kmh - -
Humidity 82% 99% 43% 78%
Pressure 29.84 in1010.5 mb 29.84 in1010.5 mb 29.79 in1008.8 mb -
Precipitation - 0.02 in0.5 mm - -
Hour Temp Dew Point Humidity Winds Wind Gusts Pressure Precip Precip Rate Daily Precip Total
08:45 PM 74.6°F23.7°C 68.7°F20.4°C 82% Calm Calm -- 29.84 in1010.5 mb 0.00 in0.0 mm 0.00 in/hr0.0 mm/hr 0.02 in0.5 mm
08:30 PM 75.1°F23.9°C 68.2°F20.1°C 79% Calm Calm -- 29.83 in1010.2 mb 0.00 in0.0 mm 0.00 in/hr0.0 mm/hr 0.02 in0.5 mm
08:15 PM 75.6°F24.2°C 68.6°F20.3°C 79% Calm Calm -- 29.82 in1009.8 mb 0.00 in0.0 mm 0.00 in/hr0.0 mm/hr 0.02 in0.5 mm
08:00 PM 76.1°F24.5°C 68.8°F20.4°C 78% Calm Calm -- 29.82 in1009.8 mb 0.00 in0.0 mm 0.00 in/hr0.0 mm/hr 0.02 in0.5 mm
07:45 PM 76.9°F24.9°C 69.1°F20.6°C 77% Calm Calm -- 29.82 in1009.8 mb 0.00 in0.0 mm 0.00 in/hr0.0 mm/hr 0.02 in0.5 mm
07:30 PM 77.6°F25.3°C 68.7°F20.4°C 74% Calm Calm -- 29.81 in1009.5 mb 0.00 in0.0 mm 0.00 in/hr0.0 mm/hr 0.02 in0.5 mm
07:15 PM 78.1°F25.6°C 68.3°F20.2°C 72% Calm Calm -- 29.81 in1009.5 mb 0.00 in0.0 mm 0.00 in/hr0.0 mm/hr 0.02 in0.5 mm
07:00 PM 78.6°F25.9°C 68.4°F20.2°C 71% Calm Calm -- 29.81 in1009.5 mb 0.00 in0.0 mm 0.00 in/hr0.0 mm/hr 0.02 in0.5 mm
06:45 PM 79.4°F26.3°C 69.1°F20.6°C 71% Calm Calm -- 29.81 in1009.5 mb 0.00 in0.0 mm 0.00 in/hr0.0 mm/hr 0.02 in0.5 mm
06:30 PM 80.2°F26.8°C 67.3°F19.6°C 65% Calm Calm -- 29.81 in1009.5 mb 0.00 in0.0 mm 0.00 in/hr0.0 mm/hr 0.02 in0.5 mm
06:15 PM 81.5°F27.5°C 65.8°F18.8°C 59% Calm Calm -- 29.81 in1009.5 mb 0.00 in0.0 mm 0.00 in/hr0.0 mm/hr 0.02 in0.5 mm
06:00 PM 82.5°F28.1°C 67.7°F19.8°C 61% Calm Calm -- 29.81 in1009.5 mb 0.00 in0.0 mm 0.00 in/hr0.0 mm/hr 0.02 in0.5 mm
05:45 PM 82.6°F28.1°C 66.9°F19.4°C 59% Calm Calm -- 29.81 in1009.5 mb 0.00 in0.0 mm 0.00 in/hr0.0 mm/hr 0.02 in0.5 mm
05:30 PM 85.6°F29.8°C 68.1°F20.1°C 56% Calm Calm -- 29.81 in1009.5 mb 0.00 in0.0 mm 0.00 in/hr0.0 mm/hr 0.02 in0.5 mm
05:15 PM 84.5°F29.2°C 68.6°F20.3°C 59% Calm Calm -- 29.80 in1009.1 mb 0.00 in0.0 mm 0.00 in/hr0.0 mm/hr 0.02 in0.5 mm
05:00 PM 84.7°F29.3°C 68.3°F20.2°C 58% Calm Calm -- 29.80 in1009.1 mb 0.00 in0.0 mm 0.00 in/hr0.0 mm/hr 0.02 in0.5 mm
04:45 PM 81.5°F27.5°C 71.2°F21.8°C 71% Calm Calm -- 29.80 in1009.1 mb 0.00 in0.0 mm 0.00 in/hr0.0 mm/hr 0.02 in0.5 mm
04:30 PM 83.8°F28.8°C 69.4°F20.8°C 62% Calm Calm -- 29.80 in1009.1 mb 0.00 in0.0 mm 0.00 in/hr0.0 mm/hr 0.02 in0.5 mm
04:15 PM 85.5°F29.7°C 69.0°F20.6°C 58% Calm Calm -- 29.80 in1009.1 mb 0.00 in0.0 mm 0.00 in/hr0.0 mm/hr 0.02 in0.5 mm
04:00 PM 87.4°F30.8°C 67.6°F19.8°C 52% Calm Calm -- 29.80 in1009.1 mb 0.00 in0.0 mm 0.00 in/hr0.0 mm/hr 0.02 in0.5 mm
03:45 PM 88.4°F31.3°C 67.4°F19.7°C 50% 0.1 mph SW0.2 kmh SW 1.0 mph1.6 kmh 29.81 in1009.5 mb 0.00 in0.0 mm 0.00 in/hr0.0 mm/hr 0.02 in0.5 mm
03:30 PM 88.0°F31.1°C 62.7°F17.1°C 43% 0.1 mph SW0.2 kmh SW 1.0 mph1.6 kmh 29.81 in1009.5 mb 0.00 in0.0 mm 0.00 in/hr0.0 mm/hr 0.02 in0.5 mm
03:15 PM 87.8°F31.0°C 65.7°F18.7°C 48% Calm Calm -- 29.81 in1009.5 mb 0.00 in0.0 mm 0.00 in/hr0.0 mm/hr 0.02 in0.5 mm
03:00 PM 87.4°F30.8°C 65.9°F18.8°C 49% 0.4 mph WSW0.6 kmh WSW 2.0 mph3.2 kmh 29.81 in1009.5 mb 0.00 in0.0 mm 0.00 in/hr0.0 mm/hr 0.02 in0.5 mm
02:45 PM 87.0°F30.6°C 68.3°F20.2°C 54% 0.2 mph SW0.3 kmh SW 1.0 mph1.6 kmh 29.81 in1009.5 mb 0.00 in0.0 mm 0.00 in/hr0.0 mm/hr 0.02 in0.5 mm
02:30 PM 86.7°F30.4°C 68.6°F20.3°C 55% 0.3 mph SW0.5 kmh SW 3.0 mph4.8 kmh 29.81 in1009.5 mb 0.00 in0.0 mm 0.00 in/hr0.0 mm/hr 0.02 in0.5 mm
02:15 PM 83.7°F28.7°C 68.9°F20.5°C 61% 0.1 mph S0.2 kmh S -- 29.82 in1009.8 mb 0.00 in0.0 mm 0.00 in/hr0.0 mm/hr 0.02 in0.5 mm
02:00 PM 86.5°F30.3°C 67.3°F19.6°C 53% 0.3 mph S0.5 kmh S 1.0 mph1.6 kmh 29.81 in1009.5 mb 0.00 in0.0 mm 0.00 in/hr0.0 mm/hr 0.02 in0.5 mm
01:45 PM 85.7°F29.8°C 67.7°F19.8°C 55% 0.1 mph SE0.2 kmh SE -- 29.82 in1009.8 mb 0.00 in0.0 mm 0.00 in/hr0.0 mm/hr 0.02 in0.5 mm
01:30 PM 84.8°F29.3°C 65.8°F18.8°C 53% 0.8 mph SSW1.3 kmh SSW 3.0 mph4.8 kmh 29.82 in1009.8 mb 0.00 in0.0 mm 0.00 in/hr0.0 mm/hr 0.02 in0.5 mm
01:15 PM 85.5°F29.7°C 67.5°F19.7°C 55% 0.8 mph SE1.3 kmh SE 2.0 mph3.2 kmh 29.82 in1009.8 mb 0.00 in0.0 mm 0.00 in/hr0.0 mm/hr 0.02 in0.5 mm
01:00 PM 83.6°F28.7°C 67.3°F19.6°C 58% Calm Calm -- 29.82 in1009.8 mb 0.00 in0.0 mm 0.00 in/hr0.0 mm/hr 0.02 in0.5 mm
12:45 PM 84.1°F28.9°C 69.2°F20.7°C 61% 0.4 mph SE0.6 kmh SE 1.0 mph1.6 kmh 29.82 in1009.8 mb 0.00 in0.0 mm 0.00 in/hr0.0 mm/hr 0.02 in0.5 mm
12:30 PM 84.4°F29.1°C 67.0°F19.4°C 56% 0.1 mph NE0.2 kmh NE 1.0 mph1.6 kmh 29.82 in1009.8 mb 0.00 in0.0 mm 0.00 in/hr0.0 mm/hr 0.02 in0.5 mm
12:15 PM 85.3°F29.6°C 67.8°F19.9°C 56% 0.4 mph NE0.6 kmh NE 3.0 mph4.8 kmh 29.83 in1010.2 mb 0.00 in0.0 mm 0.00 in/hr0.0 mm/hr 0.02 in0.5 mm
12:00 PM 85.2°F29.6°C 69.2°F20.7°C 59% Calm Calm 1.0 mph1.6 kmh 29.83 in1010.2 mb 0.00 in0.0 mm 0.00 in/hr0.0 mm/hr 0.02 in0.5 mm
11:45 AM 85.0°F29.4°C 69.5°F20.8°C 60% Calm Calm 1.0 mph1.6 kmh 29.83 in1010.2 mb 0.00 in0.0 mm 0.00 in/hr0.0 mm/hr 0.02 in0.5 mm
11:30 AM 84.5°F29.2°C 70.5°F21.4°C 63% Calm Calm -- 29.83 in1010.2 mb 0.00 in0.0 mm 0.00 in/hr0.0 mm/hr 0.02 in0.5 mm
11:15 AM 83.4°F28.6°C 69.5°F20.8°C 63% 0.1 mph S0.2 kmh S 2.0 mph3.2 kmh 29.83 in1010.2 mb 0.00 in0.0 mm 0.00 in/hr0.0 mm/hr 0.02 in0.5 mm
11:00 AM 83.0°F28.3°C 70.0°F21.1°C 65% 0.2 mph NW0.3 kmh NW 3.0 mph4.8 kmh 29.83 in1010.2 mb 0.00 in0.0 mm 0.00 in/hr0.0 mm/hr 0.02 in0.5 mm
10:45 AM 82.1°F27.8°C 70.1°F21.2°C 67% Calm Calm 1.0 mph1.6 kmh 29.83 in1010.2 mb 0.00 in0.0 mm 0.00 in/hr0.0 mm/hr 0.02 in0.5 mm
10:30 AM 82.8°F28.2°C 71.6°F22.0°C 69% 0.2 mph W0.3 kmh W 1.0 mph1.6 kmh 29.83 in1010.2 mb 0.00 in0.0 mm 0.00 in/hr0.0 mm/hr 0.02 in0.5 mm
10:15 AM 82.8°F28.2°C 71.2°F21.8°C 68% 0.1 mph WSW0.2 kmh WSW -- 29.83 in1010.2 mb 0.00 in0.0 mm 0.00 in/hr0.0 mm/hr 0.02 in0.5 mm
10:00 AM 82.4°F28.0°C 71.7°F22.1°C 70% Calm Calm -- 29.83 in1010.2 mb 0.00 in0.0 mm 0.00 in/hr0.0 mm/hr 0.02 in0.5 mm
09:45 AM 81.4°F27.4°C 71.5°F21.9°C 72% Calm Calm 1.0 mph1.6 kmh 29.83 in1010.2 mb 0.00 in0.0 mm 0.00 in/hr0.0 mm/hr 0.02 in0.5 mm
09:30 AM 78.5°F25.8°C 72.9°F22.7°C 83% 0.1 mph NW0.2 kmh NW 1.0 mph1.6 kmh 29.83 in1010.2 mb 0.00 in0.0 mm 0.00 in/hr0.0 mm/hr 0.02 in0.5 mm
09:15 AM 78.6°F25.9°C 71.9°F22.2°C 80% Calm Calm -- 29.83 in1010.2 mb 0.00 in0.0 mm 0.00 in/hr0.0 mm/hr 0.02 in0.5 mm
09:00 AM 78.7°F25.9°C 72.4°F22.4°C 81% 0.4 mph WNW0.6 kmh WNW 1.0 mph1.6 kmh 29.83 in1010.2 mb 0.00 in0.0 mm 0.00 in/hr0.0 mm/hr 0.02 in0.5 mm
08:45 AM 76.8°F24.9°C 72.6°F22.6°C 87% 0.1 mph NNW0.2 kmh NNW 1.0 mph1.6 kmh 29.83 in1010.2 mb 0.00 in0.0 mm 0.00 in/hr0.0 mm/hr 0.02 in0.5 mm
08:30 AM 75.2°F24.0°C 72.1°F22.3°C 90% Calm Calm -- 29.83 in1010.2 mb 0.00 in0.0 mm 0.00 in/hr0.0 mm/hr 0.02 in0.5 mm
08:15 AM 74.3°F23.5°C 71.1°F21.7°C 90% 0.1 mph N0.2 kmh N 2.0 mph3.2 kmh 29.83 in1010.2 mb 0.00 in0.0 mm 0.00 in/hr0.0 mm/hr 0.02 in0.5 mm
08:00 AM 73.6°F23.1°C 71.1°F21.7°C 92% Calm Calm -- 29.83 in1010.2 mb 0.00 in0.0 mm 0.00 in/hr0.0 mm/hr 0.02 in0.5 mm
07:45 AM 73.3°F22.9°C 71.2°F21.8°C 93% 0.1 mph N0.2 kmh N 1.0 mph1.6 kmh 29.83 in1010.2 mb 0.00 in0.0 mm 0.00 in/hr0.0 mm/hr 0.02 in0.5 mm
07:30 AM 72.3°F22.4°C 70.8°F21.6°C 95% 0.4 mph N0.6 kmh N 2.0 mph3.2 kmh 29.83 in1010.2 mb 0.00 in0.0 mm 0.00 in/hr0.0 mm/hr 0.02 in0.5 mm
07:15 AM 71.1°F21.7°C 70.2°F21.2°C 97% Calm Calm -- 29.83 in1010.2 mb 0.00 in0.0 mm 0.00 in/hr0.0 mm/hr 0.02 in0.5 mm
07:00 AM 70.2°F21.2°C 69.6°F20.9°C 98% 0.5 mph NNE0.8 kmh NNE 1.0 mph1.6 kmh 29.82 in1009.8 mb 0.00 in0.0 mm 0.00 in/hr0.0 mm/hr 0.02 in0.5 mm
06:45 AM 69.8°F21.0°C 69.5°F20.8°C 99% 0.1 mph NE0.2 kmh NE 1.0 mph1.6 kmh 29.82 in1009.8 mb 0.00 in0.0 mm 0.00 in/hr0.0 mm/hr 0.02 in0.5 mm
06:30 AM 69.5°F20.8°C 69.3°F20.7°C 99% Calm Calm -- 29.82 in1009.8 mb 0.00 in0.0 mm 0.00 in/hr0.0 mm/hr 0.02 in0.5 mm
06:15 AM 69.3°F20.7°C 69.0°F20.6°C 99% Calm Calm -- 29.82 in1009.8 mb 0.00 in0.0 mm 0.00 in/hr0.0 mm/hr 0.02 in0.5 mm
06:00 AM 69.1°F20.6°C 68.8°F20.4°C 99% Calm Calm -- 29.82 in1009.8 mb 0.00 in0.0 mm 0.00 in/hr0.0 mm/hr 0.02 in0.5 mm
05:45 AM 68.9°F20.5°C 68.6°F20.3°C 99% 0.2 mph NE0.3 kmh NE -- 29.81 in1009.5 mb 0.00 in0.0 mm 0.00 in/hr0.0 mm/hr 0.02 in0.5 mm
05:30 AM 68.7°F20.4°C 68.4°F20.2°C 99% Calm Calm -- 29.81 in1009.5 mb 0.00 in0.0 mm 0.00 in/hr0.0 mm/hr 0.02 in0.5 mm
05:15 AM 68.6°F20.3°C 68.3°F20.2°C 99% Calm Calm -- 29.81 in1009.5 mb 0.00 in0.0 mm 0.00 in/hr0.0 mm/hr 0.02 in0.5 mm
05:00 AM 68.3°F20.2°C 68.0°F20.0°C 99% Calm Calm -- 29.81 in1009.5 mb 0.00 in0.0 mm 0.00 in/hr0.0 mm/hr 0.02 in0.5 mm
04:45 AM 68.2°F20.1°C 67.9°F19.9°C 99% Calm Calm -- 29.80 in1009.1 mb 0.00 in0.0 mm 0.00 in/hr0.0 mm/hr 0.02 in0.5 mm
04:30 AM 68.3°F20.2°C 68.0°F20.0°C 99% Calm Calm -- 29.80 in1009.1 mb 0.00 in0.0 mm 0.00 in/hr0.0 mm/hr 0.02 in0.5 mm
04:15 AM 68.4°F20.2°C 68.1°F20.1°C 99% Calm Calm -- 29.80 in1009.1 mb 0.00 in0.0 mm 0.00 in/hr0.0 mm/hr 0.02 in0.5 mm
04:00 AM 68.5°F20.3°C 68.2°F20.1°C 99% Calm Calm -- 29.80 in1009.1 mb 0.00 in0.0 mm 0.00 in/hr0.0 mm/hr 0.02 in0.5 mm
03:45 AM 68.6°F20.3°C 68.3°F20.2°C 99% Calm Calm -- 29.80 in1009.1 mb 0.00 in0.0 mm 0.00 in/hr0.0 mm/hr 0.02 in0.5 mm
03:30 AM 68.7°F20.4°C 68.1°F20.1°C 98% Calm Calm -- 29.80 in1009.1 mb 0.00 in0.0 mm 0.00 in/hr0.0 mm/hr 0.02 in0.5 mm
03:15 AM 68.9°F20.5°C 68.3°F20.2°C 98% Calm Calm -- 29.80 in1009.1 mb 0.00 in0.0 mm 0.00 in/hr0.0 mm/hr 0.02 in0.5 mm
03:00 AM 69.2°F20.7°C 68.6°F20.3°C 98% Calm Calm -- 29.80 in1009.1 mb 0.00 in0.0 mm 0.00 in/hr0.0 mm/hr 0.02 in0.5 mm
02:45 AM 69.4°F20.8°C 68.5°F20.3°C 97% Calm Calm -- 29.80 in1009.1 mb 0.02 in0.5 mm 0.08 in/hr2.0 mm/hr 0.02 in0.5 mm
02:30 AM 69.2°F20.7°C 68.3°F20.2°C 97% Calm Calm -- 29.80 in1009.1 mb 0.00 in0.0 mm 0.00 in/hr0.0 mm/hr 0.00 in0.0 mm
02:15 AM 69.1°F20.6°C 68.2°F20.1°C 97% Calm Calm -- 29.79 in1008.8 mb 0.00 in0.0 mm 0.00 in/hr0.0 mm/hr 0.00 in0.0 mm
02:00 AM 68.9°F20.5°C 68.0°F20.0°C 97% Calm Calm -- 29.79 in1008.8 mb 0.00 in0.0 mm 0.00 in/hr0.0 mm/hr 0.00 in0.0 mm
01:45 AM 68.6°F20.3°C 68.0°F20.0°C 98% Calm Calm 1.0 mph1.6 kmh 29.80 in1009.1 mb 0.00 in0.0 mm 0.00 in/hr0.0 mm/hr 0.00 in0.0 mm
01:30 AM 68.5°F20.3°C 67.9°F19.9°C 98% Calm Calm -- 29.80 in1009.1 mb 0.00 in0.0 mm 0.00 in/hr0.0 mm/hr 0.00 in0.0 mm
01:15 AM 68.3°F20.2°C 67.4°F19.7°C 97% Calm Calm -- 29.80 in1009.1 mb 0.00 in0.0 mm 0.00 in/hr0.0 mm/hr 0.00 in0.0 mm
01:00 AM 68.4°F20.2°C 67.5°F19.7°C 97% Calm Calm -- 29.81 in1009.5 mb 0.00 in0.0 mm 0.00 in/hr0.0 mm/hr 0.00 in0.0 mm
12:45 AM 68.7°F20.4°C 67.5°F19.7°C 96% Calm Calm -- 29.81 in1009.5 mb 0.00 in0.0 mm 0.00 in/hr0.0 mm/hr 0.00 in0.0 mm
12:30 AM 69.1°F20.6°C 68.0°F20.0°C 96% Calm Calm -- 29.81 in1009.5 mb 0.00 in0.0 mm 0.00 in/hr0.0 mm/hr 0.00 in0.0 mm
12:15 AM 69.5°F20.8°C 68.0°F20.0°C 95% Calm Calm -- 29.82 in1009.8 mb 0.00 in0.0 mm 0.00 in/hr0.0 mm/hr 0.00 in0.0 mm
12:00 AM 69.7°F20.9°C 67.9°F19.9°C 94% Calm Calm -- 29.82 in1009.8 mb 0.00 in0.0 mm 0.00 in/hr0.0 mm/hr 0.00 in0.0 mm